createdAt,value
2023-01-18T00:00:42.654Z,0.61
2023-01-18T00:05:46.744Z,0.64
2023-01-18T00:10:49.487Z,0.63
2023-01-18T00:15:52.259Z,0.49
2023-01-18T00:20:56.436Z,0.59
2023-01-18T00:26:02.781Z,0.54
2023-01-18T00:31:10.290Z,0.42
2023-01-18T00:36:15.354Z,0.58
2023-01-18T00:41:18.193Z,0.38
2023-01-18T00:46:23.287Z,0.50
2023-01-18T00:51:27.399Z,0.70
2023-01-18T00:56:30.143Z,0.58
2023-01-18T01:01:32.979Z,0.70
2023-01-18T01:06:46.963Z,0.76
2023-01-18T01:12:08.123Z,0.78
2023-01-18T01:17:28.245Z,0.52
2023-01-18T01:22:49.844Z,0.69
2023-01-18T01:27:53.017Z,0.77
2023-01-18T01:32:56.111Z,0.72
2023-01-18T01:38:00.342Z,0.49
2023-01-18T01:43:03.077Z,0.68
2023-01-18T01:48:06.576Z,1.02
2023-01-18T01:53:12.461Z,1.21
2023-01-18T01:58:19.285Z,1.11
2023-01-18T02:03:24.113Z,0.78
2023-01-18T02:08:29.659Z,0.70
2023-01-18T02:13:32.682Z,0.60
2023-01-18T02:18:45.341Z,0.70
2023-01-18T02:24:22.468Z,0.50
2023-01-18T02:29:44.987Z,0.51
2023-01-18T02:34:50.450Z,0.32
2023-01-18T02:40:06.075Z,0.37
2023-01-18T02:45:35.816Z,0.20
2023-01-18T02:50:38.772Z,0.07
2023-01-18T02:55:45.331Z,0.05
2023-01-18T03:00:54.170Z,-0.04
2023-01-18T03:06:01.648Z,-0.11
2023-01-18T03:11:08.728Z,-0.07
2023-01-18T03:16:19.632Z,0.03
2023-01-18T03:21:22.424Z,0.08
2023-01-18T03:26:26.176Z,0.23
2023-01-18T03:31:57.014Z,-0.01
2023-01-18T03:37:04.588Z,-0.07
2023-01-18T03:42:13.111Z,-0.10
2023-01-18T03:47:17.399Z,-0.24
2023-01-18T03:52:25.521Z,-0.18
2023-01-18T03:57:34.922Z,-0.15
2023-01-18T04:02:39.457Z,-0.22
2023-01-18T04:07:42.787Z,-0.27
2023-01-18T04:12:45.562Z,-0.26
2023-01-18T04:17:53.211Z,-0.25
2023-01-18T04:22:56.691Z,-0.15
2023-01-18T04:27:59.673Z,-0.05
2023-01-18T04:33:03.772Z,-0.21
2023-01-18T04:38:06.522Z,-0.02
2023-01-18T04:43:09.460Z,-0.08
2023-01-18T04:48:13.723Z,-0.30
2023-01-18T04:53:16.768Z,-0.37
2023-01-18T04:58:19.849Z,-0.52
2023-01-18T05:03:24.357Z,-0.37
2023-01-18T05:08:27.139Z,-0.27
2023-01-18T05:13:30.131Z,-0.31
2023-01-18T05:18:34.649Z,-0.45
2023-01-18T05:23:38.884Z,-0.44
2023-01-18T05:28:43.021Z,-0.61
2023-01-18T05:33:47.141Z,-0.57
2023-01-18T05:38:50.079Z,-0.54
2023-01-18T05:43:52.888Z,-0.67
2023-01-18T05:48:58.490Z,-0.77
2023-01-18T05:54:01.266Z,-0.45
2023-01-18T05:59:04.088Z,-0.31
2023-01-18T06:04:08.458Z,-0.06
2023-01-18T06:09:11.639Z,-0.11
2023-01-18T06:14:14.553Z,0.12
2023-01-18T06:19:18.785Z,0.13
2023-01-18T06:24:21.568Z,0.24
2023-01-18T06:29:24.568Z,0.23
2023-01-18T06:34:30.368Z,0.18
2023-01-18T06:39:33.276Z,0.14
2023-01-18T06:44:36.036Z,0.23
2023-01-18T06:49:40.208Z,0.03
2023-01-18T06:54:43.014Z,0.09
2023-01-18T06:59:45.727Z,-0.11
2023-01-18T07:04:49.826Z,0.10
2023-01-18T07:09:52.593Z,0.02
2023-01-18T07:14:55.353Z,0.01
2023-01-18T07:19:59.551Z,0.05
2023-01-18T07:25:02.320Z,0.12
2023-01-18T07:30:05.814Z,0.12
2023-01-18T07:35:10.364Z,0.22
2023-01-18T07:40:15.409Z,0.21
2023-01-18T07:45:18.500Z,0.34
2023-01-18T07:50:22.896Z,0.40
2023-01-18T07:55:26.033Z,0.33
2023-01-18T08:00:29.580Z,0.31
2023-01-18T08:05:34.540Z,0.25
2023-01-18T08:10:38.615Z,0.46
2023-01-18T08:15:41.755Z,0.39
2023-01-18T08:20:46.388Z,0.52
2023-01-18T08:25:49.627Z,0.63
2023-01-18T08:30:52.566Z,0.71
2023-01-18T08:35:56.693Z,0.73
2023-01-18T08:41:02.815Z,0.93
2023-01-18T08:46:05.727Z,1.01
2023-01-18T08:51:11.123Z,1.18
2023-01-18T08:56:14.062Z,1.20
2023-01-18T09:01:16.992Z,1.37
2023-01-18T09:06:21.131Z,1.42
2023-01-18T09:11:24.504Z,1.44
2023-01-18T09:16:27.376Z,1.35
2023-01-18T09:21:31.536Z,1.56
2023-01-18T09:26:34.323Z,1.75
2023-01-18T09:31:37.529Z,1.83
2023-01-18T09:36:42.164Z,1.83
2023-01-18T09:41:47.428Z,2.10
2023-01-18T09:46:54.604Z,2.17
2023-01-18T09:52:13.242Z,2.37
2023-01-18T09:57:23.258Z,2.38
2023-01-18T10:02:30.921Z,2.37
2023-01-18T10:07:38.321Z,2.45
2023-01-18T10:12:47.798Z,2.42
2023-01-18T10:17:53.720Z,2.24
2023-01-18T10:23:02.798Z,2.36
2023-01-18T10:28:29.285Z,2.28
2023-01-18T10:33:38.276Z,2.34
2023-01-18T10:38:43.016Z,2.56
2023-01-18T10:43:46.281Z,2.75
2023-01-18T10:48:51.534Z,3.13
2023-01-18T10:53:55.770Z,2.70
2023-01-18T10:59:00.781Z,2.71
2023-01-18T11:04:07.527Z,3.07
2023-01-18T11:09:41.976Z,3.16
2023-01-18T11:14:45.250Z,3.00
2023-01-18T11:19:48.792Z,2.82
2023-01-18T11:24:54.317Z,3.13
2023-01-18T11:29:57.158Z,3.12
2023-01-18T11:35:00.905Z,3.00
2023-01-18T11:40:29.581Z,2.65
2023-01-18T11:45:36.747Z,2.42
2023-01-18T11:50:43.297Z,2.65
2023-01-18T11:55:56.443Z,2.64
2023-01-18T12:01:29.012Z,3.11
2023-01-18T12:06:42.462Z,2.78
2023-01-18T12:12:17.291Z,2.94
2023-01-18T12:17:37.727Z,2.88
2023-01-18T12:23:05.495Z,2.75
2023-01-18T12:28:17.731Z,2.75
2023-01-18T12:33:43.501Z,2.49
2023-01-18T12:38:52.012Z,2.66
2023-01-18T12:44:22.241Z,2.74
2023-01-18T12:49:29.301Z,3.09
2023-01-18T12:54:38.531Z,3.05
2023-01-18T12:59:47.518Z,2.76
2023-01-18T13:04:55.816Z,2.89
2023-01-18T13:09:59.281Z,2.99
2023-01-18T13:15:15.077Z,2.83
2023-01-18T13:20:21.130Z,3.19
2023-01-18T13:25:41.492Z,3.00
2023-01-18T13:30:53.900Z,3.04
2023-01-18T13:35:59.801Z,3.08
2023-01-18T13:41:05.394Z,3.09
2023-01-18T13:46:21.947Z,3.08
2023-01-18T13:51:52.004Z,3.29
2023-01-18T13:57:17.273Z,3.25
2023-01-18T14:02:27.624Z,3.15
2023-01-18T14:07:36.576Z,3.14
2023-01-18T14:12:47.398Z,2.95
2023-01-18T14:17:58.656Z,2.91
2023-01-18T14:23:13.342Z,2.77
2023-01-18T14:28:18.602Z,2.74
2023-01-18T14:33:27.101Z,2.68
2023-01-18T14:38:30.594Z,2.67
2023-01-18T14:43:36.007Z,2.73
2023-01-18T14:48:48.548Z,2.52
2023-01-18T14:53:54.789Z,2.49
2023-01-18T14:58:59.504Z,2.47
2023-01-18T15:04:07.302Z,2.30
2023-01-18T15:09:11.555Z,2.24
2023-01-18T15:14:19.423Z,2.23
2023-01-18T15:19:30.114Z,2.06
2023-01-18T15:24:39.885Z,2.00
2023-01-18T15:29:48.326Z,2.14
2023-01-18T15:34:54.237Z,2.29
2023-01-18T15:40:00.914Z,2.29
2023-01-18T15:45:04.446Z,2.13
2023-01-18T15:50:19.817Z,2.05
2023-01-18T15:55:27.060Z,1.86
2023-01-18T16:00:32.941Z,1.91
2023-01-18T16:05:37.268Z,1.91
2023-01-18T16:10:49.966Z,1.94
2023-01-18T16:16:09.339Z,1.87
2023-01-18T16:21:21.057Z,1.91
2023-01-18T16:26:30.397Z,1.92
2023-01-18T16:31:34.272Z,1.85
2023-01-18T16:36:42.668Z,1.84
2023-01-18T16:41:51.822Z,1.57
2023-01-18T16:46:54.850Z,1.55
2023-01-18T16:51:59.846Z,1.60
2023-01-18T16:57:02.685Z,1.60
2023-01-18T17:02:05.736Z,1.68
2023-01-18T17:07:11.237Z,1.60
2023-01-18T17:12:13.994Z,1.63
2023-01-18T17:17:17.254Z,1.58
2023-01-18T17:22:21.347Z,1.50
2023-01-18T17:27:24.261Z,1.42
2023-01-18T17:37:34.096Z,1.31
2023-01-18T17:42:37.004Z,1.35
2023-01-18T17:47:39.940Z,1.34
2023-01-18T17:52:44.077Z,1.39
2023-01-18T17:57:47.011Z,1.27
2023-01-18T18:02:52.081Z,1.31
2023-01-18T18:07:56.171Z,1.19
2023-01-18T18:12:59.700Z,1.22
2023-01-18T18:18:04.052Z,1.14
2023-01-18T18:23:10.228Z,1.22
2023-01-18T18:28:13.696Z,1.17
2023-01-18T18:33:17.063Z,1.21
2023-01-18T18:38:23.005Z,1.20
2023-01-18T18:43:25.839Z,1.15
2023-01-18T18:48:28.600Z,1.10
2023-01-18T18:53:38.255Z,1.04
2023-01-18T18:58:42.295Z,1.06
2023-01-18T19:03:46.823Z,1.05
2023-01-18T19:08:51.103Z,1.05
2023-01-18T19:13:55.731Z,1.16
2023-01-18T19:18:58.488Z,1.15
2023-01-18T19:24:02.812Z,1.03
2023-01-18T19:29:05.753Z,1.18
2023-01-18T19:34:08.660Z,1.08
2023-01-18T19:39:21.905Z,1.00
2023-01-18T19:44:25.179Z,1.12
2023-01-18T19:49:28.411Z,1.16
2023-01-18T19:54:32.624Z,1.19
2023-01-18T19:59:35.449Z,1.30
2023-01-18T20:04:38.250Z,1.17
2023-01-18T20:09:43.673Z,1.10
2023-01-18T20:14:46.860Z,1.14
2023-01-18T20:19:51.111Z,1.17
2023-01-18T20:24:55.583Z,1.29
2023-01-18T20:29:59.103Z,1.27
2023-01-18T20:35:01.952Z,1.25
2023-01-18T20:40:07.140Z,1.23
2023-01-18T20:45:10.648Z,1.30
2023-01-18T20:50:13.441Z,1.49
2023-01-18T20:55:22.091Z,1.29
2023-01-18T21:00:28.710Z,1.38
2023-01-18T21:05:31.984Z,1.38
2023-01-18T21:10:39.695Z,1.52
2023-01-18T21:15:45.761Z,1.70
2023-01-18T21:20:53.905Z,1.90
2023-01-18T21:26:08.020Z,1.84
2023-01-18T21:31:11.392Z,1.78
2023-01-18T21:36:20.021Z,1.57
2023-01-18T21:41:41.846Z,1.79
2023-01-18T21:46:47.470Z,1.68
2023-01-18T21:52:07.918Z,1.71
2023-01-18T21:57:14.048Z,1.81
2023-01-18T22:02:17.078Z,1.87
2023-01-18T22:07:20.030Z,1.86
2023-01-18T22:12:24.591Z,2.30
2023-01-18T22:17:27.588Z,1.94
2023-01-18T22:22:31.853Z,2.29
2023-01-18T22:27:36.894Z,2.30
2023-01-18T22:32:41.856Z,2.35
2023-01-18T22:37:47.835Z,2.40
2023-01-18T22:42:52.007Z,2.58
2023-01-18T22:47:56.789Z,2.40
2023-01-18T22:52:59.529Z,2.53
2023-01-18T22:58:03.947Z,2.14
2023-01-18T23:03:07.012Z,2.33
2023-01-18T23:08:14.972Z,2.14
2023-01-18T23:13:19.128Z,2.31
2023-01-18T23:18:22.105Z,2.17
2023-01-18T23:23:25.052Z,2.48
2023-01-18T23:28:41.124Z,2.36
2023-01-18T23:33:44.428Z,2.37
2023-01-18T23:39:04.636Z,2.50
2023-01-18T23:44:26.702Z,2.54
2023-01-18T23:49:47.112Z,2.70
2023-01-18T23:54:49.876Z,2.73
2023-01-18T23:59:54.254Z,2.94
